Weather reports worldwide

Advertisment
Burgos/Villafria, Spain (8075): temperature & dewpoint: 08.07.2020 13:00:00 - 14.07.2020 13:00:00 (CEST)Burgos/Villafria, Spain (8075): wind speed: 08.07.2020 13:00:00 - 14.07.2020 13:00:00 (CEST)Burgos/Villafria, Spain (8075): wind direction: 08.07.2020 13:00:00 - 14.07.2020 13:00:00 (CEST)Burgos/Villafria, Spain (8075): visibility: 08.07.2020 13:00:00 - 14.07.2020 13:00:00 (CEST)Burgos/Villafria, Spain (8075): precipitation: 08.07.2020 13:00:00 - 14.07.2020 13:00:00 (CEST)
Date & Time tt [°C] td [°C] ff [km/h] ff [kn] dd vv [km] rr [mm]
14.07.2020 13:00:00 - - - - - - -
14.07.2020 12:00:00 19,1 1,1 24 13 NE 10 0,0
14.07.2020 11:00:00 18,5 2,3 21 11 NE 10 -
14.07.2020 10:00:00 17,0 2,6 22 12 NE 10 0,0
14.07.2020 09:00:00 15,6 5,5 15 8 ENE 10 0,0
14.07.2020 08:00:00 11,7 6,2 0 0 N 10 -
14.07.2020 07:00:00 9,0 5,7 5 3 NE 10 0,0
14.07.2020 06:00:00 8,6 5,9 8 4 NE 10 0,0
14.07.2020 05:00:00 8,9 6,5 13 7 NE 10 -
14.07.2020 04:00:00 9,4 6,7 15 8 NE 10 0,0
14.07.2020 03:00:00 10,6 6,7 16 9 NE 10 0,0
14.07.2020 02:00:00 10,6 6,9 13 7 NE 10 -
14.07.2020 01:00:00 11,9 7,0 16 9 ENE 10 0,0
14.07.2020 00:00:00 12,8 7,0 16 9 NE 10 0,0
13.07.2020 23:00:00 14,5 7,1 21 11 NE 10 -
13.07.2020 22:00:00 16,7 7,6 22 12 NE 10 0,0
13.07.2020 21:00:00 19,9 7,9 26 14 NNE 10 0,0
13.07.2020 20:00:00 22,0 8,1 29 16 NE 50 -
13.07.2020 19:00:00 23,4 8,7 28 15 NE 10 0,0
13.07.2020 18:00:00 24,4 9,9 28 15 NNE 10 0,0
13.07.2020 17:00:00 25,0 10,8 28 15 NNE 10 -
13.07.2020 16:00:00 25,1 9,8 22 12 NE 10 0,0
13.07.2020 15:00:00 24,7 10,2 28 15 NE 10 0,0
13.07.2020 14:00:00 23,3 8,9 28 15 ENE 10 -
13.07.2020 13:00:00 22,6 9,4 26 14 NE 10 0,0
13.07.2020 12:00:00 21,5 10,0 26 14 NE 10 0,0
13.07.2020 11:00:00 19,5 8,5 26 14 NE 45 -
13.07.2020 10:00:00 17,5 9,1 24 13 NE 10 0,0
13.07.2020 09:00:00 15,7 10,2 21 11 NE 10 0,0
13.07.2020 08:00:00 13,1 10,6 8 4 NE 10 -
13.07.2020 07:00:00 11,3 10,4 16 9 NE 10 0,0
13.07.2020 06:00:00 12,1 10,7 4 2 ENE 10 0,0
13.07.2020 05:00:00 12,8 11,4 24 13 NE 10 -
13.07.2020 04:00:00 13,5 12,6 22 12 NE 10 0,0
13.07.2020 03:00:00 13,7 13,5 15 8 NE 10 0,0
13.07.2020 02:00:00 14,1 13,3 11 6 NE 10 -
13.07.2020 01:00:00 14,5 13,7 11 6 NNE 10 0,0
13.07.2020 00:00:00 14,5 13,9 11 6 NNE 10 0,0
12.07.2020 23:00:00 15,3 14,3 15 8 NE 10 -
12.07.2020 22:00:00 16,8 14,8 11 6 NNE 10 0,2
12.07.2020 21:00:00 18,7 15,6 15 8 ESE 10 0,2
12.07.2020 20:00:00 18,1 13,8 15 8 ESE 10 -
12.07.2020 19:00:00 21,7 8,9 29 16 SSE 10 0,0
12.07.2020 18:00:00 27,9 14,9 26 14 NE 10 0,0
12.07.2020 17:00:00 28,4 13,5 21 11 NE 10 -
12.07.2020 16:00:00 28,9 14,3 16 9 NE 10 0,0
12.07.2020 15:00:00 27,1 14,5 8 4 ENE 10 0,0
12.07.2020 14:00:00 25,1 14,8 21 11 NNE 10 -
12.07.2020 13:00:00 23,3 14,0 29 16 ENE 10 0,0
12.07.2020 12:00:00 23,1 14,4 24 13 ENE 10 0,0
12.07.2020 11:00:00 19,4 14,0 22 12 ENE 10 -
12.07.2020 10:00:00 18,9 14,6 18 10 E 10 0,0
12.07.2020 09:00:00 15,7 13,4 16 9 ENE 10 0,0
12.07.2020 08:00:00 15,1 13,1 9 5 NE 30 -
12.07.2020 07:00:00 14,3 13,3 13 7 ENE 10 0,0
12.07.2020 06:00:00 14,5 13,2 16 9 ENE 10 1,0
12.07.2020 05:00:00 15,0 12,7 9 5 NNE 10 -
12.07.2020 04:00:00 14,4 12,6 16 9 NNW 10 0,0
12.07.2020 03:00:00 14,4 12,8 16 9 NE 10 0,0
12.07.2020 02:00:00 15,1 12,6 11 6 NE 10 -
12.07.2020 01:00:00 15,7 12,4 13 7 NE 10 0,0
12.07.2020 00:00:00 16,3 12,1 16 9 NE 10 0,0
11.07.2020 23:00:00 17,1 11,8 15 8 NE 10 -
11.07.2020 22:00:00 18,9 12,4 18 10 NE 10 0,0
11.07.2020 21:00:00 21,3 12,7 28 15 NE 10 0,0
11.07.2020 20:00:00 23,3 12,6 28 15 NE 10 -
11.07.2020 19:00:00 24,5 12,1 31 17 NE 10 0,0
11.07.2020 18:00:00 25,0 11,5 35 19 ENE 10 0,0
11.07.2020 17:00:00 25,4 11,9 34 18 NE 50 -
11.07.2020 16:00:00 24,6 11,2 28 15 NE 10 0,0
11.07.2020 15:00:00 23,2 11,6 31 17 NE 10 0,0
11.07.2020 14:00:00 21,9 11,9 29 16 NE 10 -
11.07.2020 13:00:00 19,8 11,3 31 17 NE 10 0,0
11.07.2020 12:00:00 18,1 10,7 31 17 NE 10 0,0
11.07.2020 11:00:00 16,4 10,3 35 19 NE 35 -
11.07.2020 10:00:00 15,4 10,0 31 17 NE 10 0,0
11.07.2020 09:00:00 13,9 9,7 28 15 ENE 10 0,0
11.07.2020 08:00:00 12,2 9,6 18 10 ENE 20 -
11.07.2020 07:00:00 11,7 8,9 22 12 NE 10 0,0
11.07.2020 06:00:00 11,8 9,0 18 10 NE 10 0,0
11.07.2020 05:00:00 12,4 9,4 22 12 NE 10 -
11.07.2020 04:00:00 12,9 10,1 22 12 NE 10 0,0
11.07.2020 03:00:00 13,5 10,7 18 10 NE 10 0,0
11.07.2020 02:00:00 14,0 11,2 15 8 NE 10 -
11.07.2020 01:00:00 14,3 11,4 21 11 NE 10 0,0
11.07.2020 00:00:00 14,5 11,8 29 16 NE 10 0,0
10.07.2020 23:00:00 14,8 12,5 29 16 NE 10 -
10.07.2020 22:00:00 15,4 12,7 26 14 NE 10 0,0
10.07.2020 21:00:00 16,5 12,6 29 16 NE 10 0,0
10.07.2020 20:00:00 17,5 12,8 29 16 NE 10 -
10.07.2020 19:00:00 19,1 13,5 28 15 NE 10 0,0
10.07.2020 18:00:00 20,8 13,7 29 16 NE 10 0,0
10.07.2020 17:00:00 22,2 14,1 28 15 NE 10 -
10.07.2020 16:00:00 21,0 14,0 28 15 NNE 10 -
10.07.2020 15:00:00 22,4 13,7 29 16 NE 10 0,0
10.07.2020 14:00:00 21,3 13,7 28 15 ENE 18 -
10.07.2020 13:00:00 20,6 13,8 29 16 NE 10 0,0
10.07.2020 12:00:00 19,0 13,4 21 11 NE 10 0,0
10.07.2020 11:00:00 16,8 13,1 24 13 ENE 15 -
10.07.2020 10:00:00 16,9 14,2 26 14 NE 10 0,0
10.07.2020 09:00:00 15,7 14,2 13 7 NE 10 0,0
10.07.2020 08:00:00 14,6 13,6 9 5 NE 10 -
10.07.2020 07:00:00 14,7 13,9 22 12 NNE 10 0,0
10.07.2020 06:00:00 14,7 14,1 11 6 NE 9 0,0
10.07.2020 05:00:00 15,7 14,6 13 7 ENE 10 -
10.07.2020 04:00:00 15,5 14,5 9 5 NE 10 0,0
10.07.2020 03:00:00 15,6 14,5 13 7 ENE 10 0,0
10.07.2020 02:00:00 15,1 13,6 5 3 NE 10 -
10.07.2020 01:00:00 15,1 12,8 11 6 NNE 10 0,0
10.07.2020 00:00:00 15,4 12,2 5 3 ESE 10 0,0
09.07.2020 23:00:00 15,2 12,7 8 4 ESE 10 -
09.07.2020 22:00:00 17,3 12,8 8 4 E 10 0,0
09.07.2020 21:00:00 18,2 14,1 2 1 SSW 10 0,2
09.07.2020 20:00:00 20,2 10,3 11 6 N 10 -
09.07.2020 19:00:00 19,2 11,2 26 14 SE 10 0,2
09.07.2020 18:00:00 28,1 14,3 28 15 ESE 10 0,0
09.07.2020 17:00:00 31,0 12,8 21 11 ENE 10 -
09.07.2020 16:00:00 30,4 11,9 24 13 NE 10 0,0
09.07.2020 15:00:00 30,3 11,8 24 13 NNE 10 0,0
09.07.2020 14:00:00 29,5 12,4 16 9 E 20 -
09.07.2020 13:00:00 27,2 14,6 18 10 NE 10 0,0
09.07.2020 12:00:00 23,6 14,9 13 7 NE 10 0,0
09.07.2020 11:00:00 23,2 15,0 5 3 NE 10 -
09.07.2020 10:00:00 19,4 15,3 15 8 NNE 10 0,0
09.07.2020 09:00:00 18,7 14,8 9 5 NE 10 0,0
09.07.2020 08:00:00 16,3 13,6 15 8 NNE 20 -
09.07.2020 07:00:00 15,5 11,7 13 7 E 10 0,0
09.07.2020 06:00:00 14,9 12,4 9 5 NE 10 0,0
09.07.2020 05:00:00 14,5 11,5 8 4 NE 10 -
09.07.2020 04:00:00 14,7 11,3 8 4 NE 10 0,0
09.07.2020 03:00:00 15,2 12,3 4 2 - 10 0,0
09.07.2020 02:00:00 15,8 12,9 8 4 E 10 -
09.07.2020 01:00:00 16,9 13,0 9 5 NE 10 0,0
09.07.2020 00:00:00 18,3 13,6 11 6 SW 10 0,0
08.07.2020 23:00:00 18,1 15,9 5 3 S 10 -
08.07.2020 22:00:00 18,8 14,7 18 10 NW 10 0,2
08.07.2020 21:00:00 21,6 15,2 22 12 SSE 10 0,6
08.07.2020 20:00:00 25,7 12,9 11 6 NE 20 -
08.07.2020 19:00:00 26,3 12,4 22 12 NE 10 0,0
08.07.2020 18:00:00 28,6 12,5 29 16 NE 10 0,0
08.07.2020 17:00:00 28,0 12,8 26 14 ENE 10 -
08.07.2020 16:00:00 28,2 11,7 28 15 NE 10 0,0
08.07.2020 15:00:00 26,1 12,9 28 15 NNE 10 0,0
08.07.2020 14:00:00 25,6 12,8 21 11 ENE 25 -
08.07.2020 13:00:00 23,2 12,8 24 13 NE 10 0,0

tt = temperature
td = dewpoint
ff = wind speed
dd = wind direction
vv = visibility
rr = precipitation

Next stations